Time;durP1;ratioP1;P1;durP2;ratioP2;P2;SDS_P1;SDS_P2;PMS_P1;PMS_P2;Temp;Humidity;BMP_temperature;BMP_pressure;BME280_temperature;BME280_humidity;BME280_pressure;Samples;Min_cycle;Max_cycle;Signal;HPM_P1;HPM_P2
2022/08/14 00:00:18;;;;;;;6.00;2.92;;;18.60;99.90;;;;;;5079142;28;20107;-75
2022/08/14 00:02:44;;;;;;;8.30;2.92;;;18.80;99.90;;;;;;5099324;28;20634;-80
2022/08/14 00:05:14;;;;;;;8.07;3.83;;;18.90;99.90;;;;;;5081352;28;20151;-75
2022/08/14 00:07:40;;;;;;;7.57;3.25;;;19.10;99.90;;;;;;5100477;28;20026;-75
2022/08/14 00:10:09;;;;;;;6.63;3.42;;;19.30;99.90;;;;;;5083859;28;20024;-74
2022/08/14 00:12:39;;;;;;;9.60;2.78;;;19.40;99.90;;;;;;5101513;28;20107;-76
2022/08/14 00:15:27;;;;;;;7.72;3.35;;;19.50;99.90;;;;;;5101758;28;20023;-74
2022/08/14 00:17:53;;;;;;;10.32;3.20;;;19.60;99.90;;;;;;5101784;28;20073;-74
2022/08/14 00:20:22;;;;;;;10.98;4.65;;;19.50;99.90;;;;;;5081500;28;20043;-78
2022/08/14 00:22:48;;;;;;;8.68;4.00;;;23.00;99.90;;;;;;5101320;28;20043;-73
2022/08/14 00:25:14;;;;;;;8.70;3.63;;;19.40;99.90;;;;;;5101933;28;20020;-73
2022/08/14 00:27:40;;;;;;;9.00;4.05;;;19.30;99.90;;;;;;5101651;28;20188;-76
2022/08/14 00:30:11;;;;;;;11.10;4.07;;;19.30;99.90;;;;;;5101374;28;20018;-73
2022/08/14 00:32:38;;;;;;;8.65;3.55;;;19.20;99.90;;;;;;5101114;28;20050;-73
2022/08/14 00:35:05;;;;;;;9.95;4.25;;;19.10;99.90;;;;;;5100801;28;20024;-84
2022/08/14 00:37:33;;;;;;;12.32;5.15;;;19.50;99.90;;;;;;5083021;28;20534;-73
2022/08/14 00:40:00;;;;;;;10.65;4.15;;;19.20;99.90;;;;;;5101305;28;20016;-73
2022/08/14 00:42:29;;;;;;;14.68;6.72;;;18.90;99.90;;;;;;5102034;28;20094;-74
2022/08/14 00:44:55;;;;;;;12.77;6.07;;;18.30;99.90;;;;;;5101762;28;20032;-73
2022/08/14 00:47:24;;;;;;;12.55;4.63;;;18.10;99.90;;;;;;5101290;28;20012;-73
2022/08/14 00:49:52;;;;;;;9.27;4.38;;;18.00;99.90;;;;;;5082557;28;20024;-72
2022/08/14 00:52:19;;;;;;;17.17;6.03;;;18.10;99.90;;;;;;5101394;28;20016;-73
2022/08/14 00:54:53;;;;;;;10.98;4.28;;;18.20;99.90;;;;;;5082395;28;20027;-73
2022/08/14 00:57:24;;;;;;;9.88;4.60;;;18.20;99.90;;;;;;5101078;28;20115;-73
2022/08/14 00:59:50;;;;;;;11.73;4.57;;;18.00;99.90;;;;;;5101222;28;20218;-72
2022/08/14 01:02:23;;;;;;;10.50;4.10;;;18.20;99.90;;;;;;5101710;28;20023;-78
2022/08/14 01:04:52;;;;;;;10.77;5.03;;;18.40;99.90;;;;;;5101517;28;20027;-73
2022/08/14 01:07:20;;;;;;;9.02;3.53;;;18.40;99.90;;;;;;5102345;28;20220;-73
2022/08/14 01:09:51;;;;;;;8.82;3.30;;;18.50;99.90;;;;;;5084544;28;20669;-72
2022/08/14 01:12:18;;;;;;;9.85;3.92;;;18.70;99.90;;;;;;5084237;28;20027;-73
2022/08/14 01:14:44;;;;;;;11.43;4.65;;;19.00;99.90;;;;;;5085111;28;20719;-73
2022/08/14 01:17:11;;;;;;;9.27;4.47;;;19.20;99.90;;;;;;5099868;28;20015;-74
2022/08/14 01:22:23;;;;;;;12.00;4.70;;;19.40;99.90;;;;;;5099014;28;20047;-73
2022/08/14 01:24:50;;;;;;;12.82;6.13;;;18.80;99.90;;;;;;5100391;28;20024;-73
2022/08/14 01:27:23;;;;;;;14.68;6.35;;;18.70;99.90;;;;;;5081385;28;20020;-73
2022/08/14 01:29:53;;;;;;;17.80;6.75;;;18.80;99.90;;;;;;5099663;28;20747;-77
2022/08/14 01:32:20;;;;;;;11.85;4.93;;;18.50;99.90;;;;;;5080958;28;20024;-73
2022/08/14 01:34:53;;;;;;;17.75;6.75;;;18.20;99.90;;;;;;5099386;28;20036;-73
2022/08/14 01:37:24;;;;;;;14.50;6.35;;;17.90;99.90;;;;;;5081263;28;20589;-74
2022/08/14 01:39:53;;;;;;;14.35;5.78;;;18.00;99.90;;;;;;5066144;28;20055;-73
2022/08/14 01:42:20;;;;;;;17.60;7.28;;;17.90;99.90;;;;;;5082067;28;20625;-73
2022/08/14 01:44:51;;;;;;;10.68;5.28;;;18.00;99.90;;;;;;5082789;28;20100;-74
2022/08/14 01:47:17;;;;;;;11.52;4.93;;;18.10;99.90;;;;;;5084682;28;20019;-72
2022/08/14 01:49:44;;;;;;;12.18;5.78;;;17.80;99.90;;;;;;5103965;28;20008;-76
2022/08/14 01:52:11;;;;;;;13.85;5.03;;;17.90;99.90;;;;;;5085017;28;20049;-74
2022/08/14 01:54:37;;;;;;;11.60;4.88;;;18.00;99.90;;;;;;5102599;28;20028;-74
2022/08/14 01:57:05;;;;;;;11.80;5.40;;;17.90;99.90;;;;;;5101636;28;20606;-73
2022/08/14 01:59:33;;;;;;;11.70;4.45;;;18.10;99.90;;;;;;5101075;28;20104;-74
2022/08/14 02:02:02;;;;;;;17.02;7.75;;;18.10;99.90;;;;;;5099837;28;20094;-76
2022/08/14 02:04:33;;;;;;;13.52;4.90;;;17.80;99.90;;;;;;5099623;28;20012;-77
2022/08/14 02:07:01;;;;;;;16.77;7.75;;;17.90;99.90;;;;;;5100135;28;20034;-76
2022/08/14 02:09:30;;;;;;;20.42;8.88;;;17.60;99.90;;;;;;5099385;28;20222;-73
2022/08/14 02:11:55;;;;;;;15.43;6.22;;;17.20;99.90;;;;;;5080517;28;20035;-73
2022/08/14 02:14:24;;;;;;;22.67;9.43;;;17.40;99.90;;;;;;5099394;28;20039;-73
2022/08/14 02:16:51;;;;;;;13.88;5.95;;;17.40;99.90;;;;;;5099534;28;20024;-73
2022/08/14 02:19:25;;;;;;;11.70;5.53;;;17.30;99.90;;;;;;5100084;28;20185;-73
2022/08/14 02:21:53;;;;;;;20.23;7.97;;;17.70;99.90;;;;;;5071561;28;20662;-74
2022/08/14 02:24:22;;;;;;;12.27;5.35;;;18.10;99.90;;;;;;5059289;28;20353;-73
2022/08/14 02:26:49;;;;;;;20.08;7.53;;;18.00;99.90;;;;;;5059577;28;20012;-71
2022/08/14 02:29:24;;;;;;;22.73;8.32;;;18.00;99.90;;;;;;5059922;28;20025;-73
2022/08/14 02:31:55;;;;;;;15.65;6.65;;;17.60;99.90;;;;;;5076691;28;20106;-74
2022/08/14 02:34:28;;;;;;;12.77;5.43;;;21.20;99.90;;;;;;5078735;28;20028;-74
2022/08/14 02:37:06;;;;;;;13.63;4.85;;;17.80;99.90;;;;;;5079059;28;20019;-74
2022/08/14 02:39:35;;;;;;;16.20;6.13;;;17.70;99.90;;;;;;5077743;28;20036;-80
2022/08/14 02:42:01;;;;;;;13.13;5.93;;;17.90;99.90;;;;;;5080059;28;20511;-73
2022/08/14 02:44:27;;;;;;;17.73;6.13;;;18.20;99.90;;;;;;5077333;28;20070;-74
2022/08/14 02:46:56;;;;;;;21.27;7.80;;;18.20;99.90;;;;;;5080576;28;20031;-73
2022/08/14 02:49:26;;;;;;;12.40;5.85;;;17.80;99.90;;;;;;5079586;28;20008;-73
2022/08/14 02:51:56;;;;;;;12.23;5.72;;;18.10;99.90;;;;;;5079942;28;20008;-73
2022/08/14 02:54:23;;;;;;;19.90;7.53;;;18.20;99.90;;;;;;5079068;28;20115;-74
2022/08/14 02:56:49;;;;;;;22.52;8.15;;;17.70;99.90;;;;;;5077371;28;20032;-75
2022/08/14 02:59:16;;;;;;;23.60;9.63;;;17.10;99.90;;;;;;5077206;28;20024;-75
2022/08/14 03:01:43;;;;;;;14.52;7.70;;;14.80;99.90;;;;;;5077036;28;20115;-75
2022/08/14 03:04:09;;;;;;;19.48;8.32;;;16.10;99.90;;;;;;5079294;28;20032;-75
2022/08/14 03:06:37;;;;;;;15.82;7.35;;;16.00;99.90;;;;;;5081344;28;20005;-74
2022/08/14 03:09:04;;;;;;;23.45;8.18;;;15.70;99.90;;;;;;5081497;28;20644;-75
2022/08/14 03:11:36;;;;;;;21.42;8.45;;;15.30;99.90;;;;;;5079688;28;20024;-74
2022/08/14 03:14:03;;;;;;;17.00;7.13;;;15.30;99.90;;;;;;5080532;28;20028;-74
2022/08/14 03:16:34;;;;;;;19.13;8.27;;;15.40;99.90;;;;;;5078024;28;20028;-75
2022/08/14 03:19:01;;;;;;;18.10;8.05;;;15.60;99.90;;;;;;5077418;28;20031;-74
2022/08/14 03:21:29;;;;;;;19.38;8.05;;;15.70;99.90;;;;;;5085163;28;20073;-74
2022/08/14 03:24:10;;;;;;;21.95;8.57;;;15.40;99.90;;;;;;5098787;28;20019;-82
2022/08/14 03:26:42;;;;;;;17.35;6.05;;;15.20;99.90;;;;;;5099191;28;20012;-80
2022/08/14 03:29:11;;;;;;;13.98;5.95;;;15.80;99.90;;;;;;5087381;28;20019;-75
2022/08/14 03:31:39;;;;;;;17.70;6.43;;;16.10;99.90;;;;;;5101644;28;20016;-84
2022/08/14 03:34:08;;;;;;;23.17;9.00;;;16.70;99.90;;;;;;5083377;28;20038;-75
2022/08/14 03:36:36;;;;;;;18.40;7.00;;;17.10;99.90;;;;;;5101783;28;20030;-77
2022/08/14 03:39:05;;;;;;;15.05;6.85;;;17.20;99.90;;;;;;5084090;28;20083;-75
2022/08/14 03:41:31;;;;;;;16.88;6.82;;;17.70;99.90;;;;;;5100342;28;20019;-75
2022/08/14 03:44:00;;;;;;;21.83;8.98;;;17.30;99.90;;;;;;5086157;28;20038;-73
2022/08/14 03:46:31;;;;;;;16.60;6.45;;;17.90;99.90;;;;;;5103552;28;20015;-76
2022/08/14 03:48:57;;;;;;;13.10;6.18;;;16.60;99.90;;;;;;5102715;28;20055;-73
2022/08/14 03:51:27;;;;;;;16.73;7.32;;;18.00;99.90;;;;;;5102636;28;20484;-74
2022/08/14 03:53:58;;;;;;;14.52;5.70;;;17.60;99.90;;;;;;5083521;28;20066;-73
2022/08/14 03:56:26;;;;;;;22.48;7.82;;;17.90;99.90;;;;;;5084105;28;20016;-74
2022/08/14 03:58:55;;;;;;;17.95;7.40;;;17.90;99.90;;;;;;5102807;28;20050;-74
2022/08/14 04:01:23;;;;;;;17.55;6.57;;;17.50;99.90;;;;;;5084776;28;20016;-74
2022/08/14 04:03:51;;;;;;;15.05;6.15;;;17.30;99.90;;;;;;5104795;28;20036;-77
2022/08/14 04:06:21;;;;;;;16.90;5.78;;;17.10;99.90;;;;;;5086499;28;20291;-77
2022/08/14 04:08:52;;;;;;;13.80;5.80;;;17.80;99.90;;;;;;5104854;28;20057;-74
2022/08/14 04:11:18;;;;;;;17.33;7.18;;;17.80;99.90;;;;;;5103788;28;20016;-76
2022/08/14 04:13:45;;;;;;;15.63;6.38;;;17.90;99.90;;;;;;5102530;28;20032;-82
2022/08/14 04:16:15;;;;;;;16.90;7.65;;;18.40;99.90;;;;;;5102351;28;20083;-78
2022/08/14 04:18:45;;;;;;;17.48;6.28;;;17.20;99.90;;;;;;5102943;28;20015;-76
2022/08/14 04:21:13;;;;;;;20.95;6.35;;;19.20;99.90;;;;;;5102519;28;20032;-76
2022/08/14 04:23:39;;;;;;;13.23;6.18;;;19.00;99.90;;;;;;5102765;28;20024;-74
2022/08/14 04:26:09;;;;;;;15.18;7.07;;;18.70;99.90;;;;;;5101748;28;20023;-77
2022/08/14 04:28:37;;;;;;;17.98;6.82;;;19.10;99.90;;;;;;5101674;28;20043;-76
2022/08/14 04:31:05;;;;;;;16.95;5.75;;;19.00;99.90;;;;;;5082658;28;20323;-75
2022/08/14 04:33:31;;;;;;;16.73;6.70;;;19.30;99.90;;;;;;5083803;28;20036;-74
2022/08/14 04:35:57;;;;;;;19.15;7.82;;;19.40;99.90;;;;;;5102165;28;20019;-76
2022/08/14 04:43:52;;;;;;;25.55;8.00;;;19.30;99.90;;;;;;5102874;28;20239;-79
2022/08/14 04:46:22;;;;;;;14.35;6.18;;;19.20;99.90;;;;;;5083953;28;20501;-75
2022/08/14 04:48:49;;;;;;;21.65;8.57;;;19.60;99.90;;;;;;5084689;28;20020;-81
2022/08/14 04:51:17;;;;;;;16.60;7.57;;;18.70;99.90;;;;;;5102700;28;20024;-76
2022/08/14 04:53:47;;;;;;;17.92;7.50;;;19.10;99.90;;;;;;5101109;28;20130;-75
2022/08/14 04:56:16;;;;;;;18.52;8.20;;;19.20;99.90;;;;;;5083081;28;20699;-77
2022/08/14 04:58:45;;;;;;;21.40;9.23;;;19.30;99.90;;;;;;5102814;28;20031;-77
2022/08/14 05:01:11;;;;;;;20.17;7.88;;;19.10;99.90;;;;;;5082825;28;20023;-75
2022/08/14 05:03:37;;;;;;;28.50;10.48;;;19.10;99.90;;;;;;5102529;28;20020;-76
2022/08/14 05:06:06;;;;;;;19.00;8.68;;;18.80;99.90;;;;;;5102763;28;20040;-75
2022/08/14 05:08:33;;;;;;;18.67;7.78;;;18.80;99.90;;;;;;5101156;28;20018;-77
2022/08/14 05:11:01;;;;;;;15.60;6.97;;;18.60;99.90;;;;;;5100747;28;20111;-76
2022/08/14 05:13:29;;;;;;;19.27;7.80;;;17.50;99.90;;;;;;5100587;28;20031;-75
2022/08/14 05:15:57;;;;;;;20.50;7.57;;;16.00;99.90;;;;;;5100182;28;20047;-75
2022/08/14 05:18:31;;;;;;;19.90;7.95;;;17.90;99.90;;;;;;5100477;28;20055;-75
2022/08/14 05:21:00;;;;;;;21.63;8.73;;;18.00;99.90;;;;;;5099838;28;20501;-75
2022/08/14 05:23:28;;;;;;;18.98;8.00;;;18.30;99.90;;;;;;5080733;28;20050;-75
2022/08/14 05:26:00;;;;;;;20.70;8.65;;;18.50;99.90;;;;;;5100275;28;20031;-77
2022/08/14 05:28:27;;;;;;;18.55;7.60;;;18.40;99.90;;;;;;5082222;28;20441;-77
2022/08/14 05:30:56;;;;;;;16.02;7.07;;;18.50;99.90;;;;;;5102037;28;20030;-76
2022/08/14 05:33:24;;;;;;;17.45;7.45;;;18.70;99.90;;;;;;5101332;28;20063;-75
2022/08/14 05:35:51;;;;;;;19.00;8.23;;;18.90;99.90;;;;;;5083022;28;20031;-74
2022/08/14 05:38:21;;;;;;;21.10;8.52;;;18.90;99.90;;;;;;5083507;28;20673;-75
2022/08/14 05:40:48;;;;;;;21.15;8.63;;;19.30;99.90;;;;;;5101621;28;20016;-74
2022/08/14 05:43:14;;;;;;;19.45;8.82;;;19.10;99.90;;;;;;5082943;28;20034;-75
2022/08/14 05:45:41;;;;;;;22.70;9.07;;;18.80;99.90;;;;;;5100580;28;20494;-74
2022/08/14 05:48:15;;;;;;;18.92;8.27;;;19.10;99.90;;;;;;5101814;28;20022;-75
2022/08/14 05:50:46;;;;;;;;;;;19.00;99.90;;;;;;5104747;28;20023;-74
2022/08/14 05:53:18;;;;;;;21.67;7.55;;;19.50;99.90;;;;;;5086869;28;19907;-74
2022/08/14 05:55:44;;;;;;;19.40;8.10;;;18.70;99.90;;;;;;5106486;28;20026;-74
2022/08/14 05:58:10;;;;;;;16.08;7.43;;;19.20;99.90;;;;;;5101965;28;20023;-74
2022/08/14 06:00:38;;;;;;;20.50;8.93;;;19.20;99.90;;;;;;5081644;28;20031;-75
2022/08/14 06:03:20;;;;;;;22.55;8.90;;;19.20;99.90;;;;;;5101065;28;20614;-76
2022/08/14 06:05:50;;;;;;;20.73;9.43;;;18.10;99.90;;;;;;5100866;28;20012;-75
2022/08/14 06:08:29;;;;;;;21.98;9.05;;;19.20;99.90;;;;;;5083595;28;20248;-74
2022/08/14 06:11:02;;;;;;;18.30;8.05;;;19.10;99.90;;;;;;5101356;28;20038;-74
2022/08/14 06:13:39;;;;;;;19.88;8.52;;;19.20;99.90;;;;;;5101290;28;20031;-74
2022/08/14 06:16:06;;;;;;;18.83;8.85;;;19.40;99.90;;;;;;5102086;28;20030;-75
2022/08/14 06:18:34;;;;;;;23.13;8.90;;;19.40;99.90;;;;;;5101035;28;20024;-75
2022/08/14 06:21:01;;;;;;;20.67;8.50;;;18.90;99.90;;;;;;5100785;28;20043;-75
2022/08/14 06:23:27;;;;;;;20.88;8.63;;;18.80;99.90;;;;;;5101492;28;20016;-75
2022/08/14 06:25:53;;;;;;;19.05;8.05;;;19.00;99.90;;;;;;5082397;28;20023;-75
2022/08/14 06:28:28;;;;;;;18.63;8.30;;;18.40;99.90;;;;;;5101947;28;20023;-74
2022/08/14 06:30:54;;;;;;;21.20;7.78;;;18.60;99.90;;;;;;5103169;28;20534;-76
2022/08/14 06:33:21;;;;;;;18.42;8.30;;;18.40;99.90;;;;;;5084600;28;20546;-74
2022/08/14 06:35:48;;;;;;;21.08;9.23;;;18.50;99.90;;;;;;5083607;28;20043;-77
2022/08/14 06:38:19;;;;;;;20.95;9.25;;;18.80;99.90;;;;;;5099572;28;20254;-81
2022/08/14 06:40:52;;;;;;;25.55;10.70;;;18.20;99.90;;;;;;5099341;28;20012;-72
2022/08/14 06:43:19;;;;;;;22.63;10.20;;;17.70;99.90;;;;;;5081650;28;20035;-75
2022/08/14 06:45:46;;;;;;;24.10;9.18;;;17.30;99.90;;;;;;5078217;28;20028;-74
2022/08/14 06:48:19;;;;;;;20.42;8.20;;;17.30;99.90;;;;;;5090497;28;20016;-75
2022/08/14 06:50:45;;;;;;;21.83;9.05;;;16.90;99.90;;;;;;5090027;28;20012;-74
2022/08/14 06:53:13;;;;;;;21.02;8.65;;;16.70;99.90;;;;;;5092085;28;20023;-74
2022/08/14 06:55:41;;;;;;;20.58;9.10;;;16.60;99.90;;;;;;5095607;28;20015;-74
2022/08/14 06:58:14;;;;;;;27.67;9.88;;;16.50;99.90;;;;;;5087810;28;20035;-75
2022/08/14 07:06:14;;;;;;;23.00;10.23;;;16.20;99.90;;;;;;5078985;28;20070;-74
2022/08/14 07:08:45;;;;;;;23.98;9.95;;;16.20;99.90;;;;;;5091667;28;20028;-73
2022/08/14 07:11:11;;;;;;;23.55;9.75;;;16.30;99.90;;;;;;5097713;28;20020;-73
2022/08/14 07:13:37;;;;;;;25.38;8.55;;;16.30;99.90;;;;;;5082253;28;20727;-74
2022/08/14 07:16:04;;;;;;;17.48;8.50;;;16.40;99.90;;;;;;5100667;28;20641;-74
2022/08/14 07:18:31;;;;;;;22.27;9.20;;;16.40;99.90;;;;;;5103217;28;20027;-75
2022/08/14 07:21:03;;;;;;;24.67;10.65;;;16.40;99.90;;;;;;5105128;28;20024;-75
2022/08/14 07:23:29;;;;;;;24.95;10.00;;;14.10;99.90;;;;;;5105170;28;20538;-74
2022/08/14 07:25:56;;;;;;;28.77;11.25;;;16.70;99.90;;;;;;5103951;28;20583;-73
2022/08/14 07:28:22;;;;;;;22.52;8.75;;;16.50;99.90;;;;;;5103160;28;20030;-74
2022/08/14 07:30:50;;;;;;;20.25;8.75;;;16.40;99.90;;;;;;5103101;28;20016;-76
2022/08/14 07:33:16;;;;;;;24.80;12.00;;;16.50;99.90;;;;;;5102626;28;20055;-72
2022/08/14 07:35:42;;;;;;;23.35;11.35;;;16.60;99.90;;;;;;5102612;28;20030;-76
2022/08/14 07:38:16;;;;;;;23.02;8.88;;;16.60;99.90;;;;;;5102725;28;20082;-76
2022/08/14 07:40:41;;;;;;;;;;;17.10;99.90;;;;;;5103204;28;20027;-74
2022/08/14 07:43:08;;;;;;;25.90;11.25;;;16.80;99.90;;;;;;5102372;28;19908;-74
2022/08/14 07:45:34;;;;;;;25.88;10.02;;;17.00;99.90;;;;;;5084719;28;20027;-81
2022/08/14 07:48:00;;;;;;;26.40;10.48;;;;;;;;;;5083666;28;20027;-75
2022/08/14 07:50:26;;;;;;;26.95;9.88;;;17.00;99.90;;;;;;5101702;28;20031;-76
2022/08/14 07:52:55;;;;;;;26.35;11.88;;;19.90;99.90;;;;;;5081541;28;20019;-75
2022/08/14 07:55:20;;;;;;;26.67;12.02;;;17.10;99.90;;;;;;5096572;28;20092;-74
2022/08/14 07:57:47;;;;;;;26.02;10.88;;;17.60;99.90;;;;;;5102026;28;20752;-74
2022/08/14 08:00:19;;;;;;;24.38;10.75;;;17.30;99.90;;;;;;5101401;28;20031;-73
2022/08/14 08:02:48;;;;;;;27.83;11.13;;;17.40;99.90;;;;;;5089888;28;20058;-72
2022/08/14 08:05:17;;;;;;;25.90;11.13;;;15.60;99.90;;;;;;5101969;28;20020;-75
2022/08/14 08:07:49;;;;;;;22.30;10.23;;;17.70;99.90;;;;;;5102172;28;20015;-74
2022/08/14 08:10:30;;;;;;;23.98;10.02;;;17.80;99.90;;;;;;5101108;28;20731;-73
2022/08/14 08:13:12;;;;;;;23.20;9.25;;;17.90;99.90;;;;;;5083012;28;20015;-75
2022/08/14 08:15:46;;;;;;;24.98;10.73;;;18.10;99.90;;;;;;5083183;28;20051;-73
2022/08/14 08:18:14;;;;;;;24.83;9.88;;;18.00;99.90;;;;;;5101553;28;20669;-75
2022/08/14 08:20:52;;;;;;;26.33;10.13;;;17.80;99.90;;;;;;5101135;28;20715;-76
2022/08/14 08:23:21;;;;;;;24.38;10.60;;;17.80;99.90;;;;;;5099640;28;20016;-73
2022/08/14 08:25:49;;;;;;;22.63;9.50;;;17.90;99.90;;;;;;5100615;28;20016;-73
2022/08/14 08:28:26;;;;;;;23.35;10.85;;;17.90;99.90;;;;;;5100253;28;20096;-73
2022/08/14 08:31:00;;;;;;;24.63;10.70;;;18.00;99.90;;;;;;5100723;28;20027;-74
2022/08/14 08:33:32;;;;;;;23.55;10.18;;;18.00;99.90;;;;;;5079570;28;20028;-73
2022/08/14 08:36:05;;;;;;;21.10;10.55;;;18.10;99.90;;;;;;5091559;28;20012;-73
2022/08/14 08:38:32;;;;;;;24.45;11.43;;;18.20;99.90;;;;;;5070550;28;20024;-75
2022/08/14 08:41:00;;;;;;;20.23;9.90;;;18.30;99.90;;;;;;5093762;28;20244;-78
2022/08/14 08:43:32;;;;;;;24.92;10.30;;;18.30;99.90;;;;;;5088407;28;20611;-76
2022/08/14 08:46:03;;;;;;;21.02;10.48;;;18.40;99.90;;;;;;5091942;28;20043;-74
2022/08/14 08:48:42;;;;;;;18.55;9.27;;;18.30;99.90;;;;;;5071449;28;20567;-72
2022/08/14 08:51:09;;;;;;;20.35;9.25;;;18.40;99.90;;;;;;5090830;28;20064;-74
2022/08/14 08:53:35;;;;;;;22.42;10.40;;;18.40;99.90;;;;;;5091747;28;20020;-73
2022/08/14 08:56:03;;;;;;;20.88;10.05;;;18.30;99.90;;;;;;5070299;28;20021;-72
2022/08/14 08:58:29;;;;;;;21.92;9.43;;;18.20;99.90;;;;;;5091401;28;20016;-77
2022/08/14 09:01:00;;;;;;;23.55;10.48;;;18.20;99.90;;;;;;5087896;28;20036;-76
2022/08/14 09:03:28;;;;;;;23.05;8.85;;;18.30;99.90;;;;;;5090802;28;20728;-74
2022/08/14 09:06:04;;;;;;;20.10;9.05;;;18.50;99.90;;;;;;5089190;28;20095;-74
2022/08/14 09:08:32;;;;;;;18.90;9.30;;;18.70;99.90;;;;;;5071973;28;20028;-73
2022/08/14 09:11:00;;;;;;;19.17;9.02;;;18.90;99.90;;;;;;5074029;28;20065;-73
2022/08/14 09:13:26;;;;;;;17.55;9.18;;;19.00;99.90;;;;;;5075092;28;20031;-74
2022/08/14 09:15:54;;;;;;;20.20;10.40;;;19.20;99.90;;;;;;5070582;28;20027;-73
2022/08/14 09:18:22;;;;;;;20.33;9.30;;;19.00;99.90;;;;;;5085722;28;20801;-74
2022/08/14 09:20:53;;;;;;;24.38;10.65;;;19.00;99.90;;;;;;5080599;28;20031;-73
2022/08/14 09:23:19;;;;;;;20.80;9.95;;;18.90;99.90;;;;;;5081876;28;20763;-73
2022/08/14 09:25:48;;;;;;;17.52;8.82;;;19.10;99.90;;;;;;5081161;28;20024;-74
2022/08/14 09:28:16;;;;;;;18.40;9.25;;;19.00;99.90;;;;;;5098645;28;20015;-75
2022/08/14 09:30:53;;;;;;;20.15;8.85;;;19.10;99.90;;;;;;5081218;28;20068;-73
2022/08/14 09:33:47;;;;;;;18.55;7.93;;;17.00;99.90;;;;;;5101831;28;20099;-75
2022/08/14 09:36:50;;;;;;;20.83;8.95;;;19.30;99.90;;;;;;5081272;28;20023;-76
2022/08/14 09:39:15;;;;;;;18.58;9.60;;;19.40;99.90;;;;;;4996682;28;20098;-74
2022/08/14 09:42:15;;;;;;;16.88;7.95;;;19.60;99.90;;;;;;4997701;28;20798;-77
2022/08/14 09:45:09;;;;;;;18.27;8.40;;;19.50;99.90;;;;;;4997012;28;20629;-79
2022/08/14 09:47:46;;;;;;;17.65;7.50;;;19.80;99.90;;;;;;4996981;28;20022;-75
2022/08/14 09:50:44;;;;;;;16.95;8.30;;;19.90;99.90;;;;;;4980249;28;20030;-74
2022/08/14 09:53:11;;;;;;;16.40;9.23;;;20.10;99.90;;;;;;4996819;28;20022;-75
2022/08/14 09:55:37;;;;;;;17.70;8.90;;;20.40;99.90;;;;;;4996391;28;20036;-75
2022/08/14 09:58:12;;;;;;;18.50;8.60;;;24.10;99.90;;;;;;4996557;28;20645;-75
2022/08/14 10:00:59;;;;;;;18.00;9.23;;;21.00;99.90;;;;;;4996196;28;20539;-75
2022/08/14 10:03:33;;;;;;;16.65;8.40;;;21.70;99.90;;;;;;4996527;28;20065;-75
2022/08/14 10:06:09;;;;;;;20.83;8.75;;;20.90;99.90;;;;;;4980129;28;20018;-75
2022/08/14 10:09:00;;;;;;;17.73;8.80;;;20.90;99.90;;;;;;4996639;28;20026;-75
2022/08/14 10:11:32;;;;;;;20.17;8.77;;;20.80;99.90;;;;;;4997118;28;20200;-77
2022/08/14 10:14:10;;;;;;;15.55;8.45;;;21.10;99.90;;;;;;4996109;28;20038;-75
2022/08/14 10:16:42;;;;;;;16.38;7.63;;;20.80;99.90;;;;;;5040869;28;20501;-74
2022/08/14 10:19:10;;;;;;;17.42;8.05;;;21.30;99.90;;;;;;5079198;28;20016;-75
2022/08/14 10:21:42;;;;;;;16.50;8.43;;;21.50;99.90;;;;;;5078952;28;20093;-76
2022/08/14 10:24:22;;;;;;;15.25;8.95;;;22.10;99.90;;;;;;5078911;28;20024;-75
2022/08/14 10:26:56;;;;;;;21.15;9.38;;;22.10;99.70;;;;;;5078741;28;20046;-78
2022/08/14 10:29:36;;;;;;;17.35;9.63;;;22.30;99.10;;;;;;5079622;28;20486;-80
2022/08/14 10:32:03;;;;;;;15.18;7.68;;;22.50;98.90;;;;;;5060731;28;20035;-75
2022/08/14 10:34:34;;;;;;;19.75;9.80;;;25.20;99.70;;;;;;5077923;28;20035;-76
2022/08/14 10:37:08;;;;;;;18.27;9.52;;;22.50;99.00;;;;;;5079028;28;20105;-74
2022/08/14 10:39:37;;;;;;;17.80;9.40;;;23.00;98.80;;;;;;5079006;28;20095;-75
2022/08/14 10:42:09;;;;;;;16.20;8.45;;;22.40;99.00;;;;;;5078572;28;20035;-75
2022/08/14 10:44:38;;;;;;;18.07;8.23;;;22.30;98.70;;;;;;5087625;28;20019;-76
2022/08/14 10:47:11;;;;;;;18.38;9.35;;;22.20;98.90;;;;;;5099238;28;20108;-74
2022/08/14 10:49:48;;;;;;;15.80;7.55;;;22.30;99.00;;;;;;5075498;28;20091;-75
2022/08/14 10:52:28;;;;;;;18.10;8.48;;;22.20;99.30;;;;;;5093116;28;20024;-74
2022/08/14 10:55:12;;;;;;;16.00;8.35;;;22.10;99.30;;;;;;5059773;28;20580;-74
2022/08/14 10:57:58;;;;;;;18.75;9.52;;;24.30;99.60;;;;;;5077910;28;20105;-74
2022/08/14 11:00:29;;;;;;;16.88;8.38;;;22.40;98.70;;;;;;5078073;28;20469;-75
2022/08/14 11:03:08;;;;;;;18.80;8.45;;;22.50;98.90;;;;;;5088209;28;20560;-74
2022/08/14 11:05:40;;;;;;;18.20;8.48;;;23.20;98.90;;;;;;5079985;28;20041;-75
2022/08/14 11:08:09;;;;;;;19.10;8.70;;;23.20;97.40;;;;;;5098878;28;20540;-75
2022/08/14 11:10:54;;;;;;;15.20;8.05;;;23.20;97.90;;;;;;5098372;28;20262;-76
2022/08/14 11:13:26;;;;;;;16.08;8.45;;;23.50;96.40;;;;;;5081368;28;20028;-75
2022/08/14 11:15:55;;;;;;;13.18;6.97;;;23.50;96.80;;;;;;5090547;28;20012;-75
2022/08/14 11:18:21;;;;;;;18.60;7.70;;;23.40;97.50;;;;;;5080286;28;20034;-76
2022/08/14 11:20:58;;;;;;;14.98;7.35;;;24.00;96.90;;;;;;5098970;28;20012;-74
2022/08/14 11:23:32;;;;;;;14.68;8.23;;;23.50;97.20;;;;;;5099425;28;20020;-74
2022/08/14 11:25:59;;;;;;;14.25;6.93;;;25.10;97.00;;;;;;5098917;28;20020;-75
2022/08/14 11:28:27;;;;;;;14.65;8.00;;;23.50;96.10;;;;;;5080441;28;20020;-75
2022/08/14 11:30:57;;;;;;;12.73;6.82;;;23.70;96.80;;;;;;5096878;28;20019;-76
2022/08/14 11:33:28;;;;;;;14.23;7.35;;;23.60;96.20;;;;;;5092617;28;20031;-75
2022/08/14 11:35:59;;;;;;;16.77;7.47;;;24.00;96.30;;;;;;5082735;28;20023;-74
2022/08/14 11:38:27;;;;;;;16.52;8.63;;;24.20;96.40;;;;;;5091214;28;20169;-75
2022/08/14 11:40:57;;;;;;;14.23;7.10;;;24.70;95.50;;;;;;5083231;28;20015;-75
2022/08/14 11:43:24;;;;;;;13.88;7.20;;;25.10;95.40;;;;;;5094092;28;20034;-74
2022/08/14 11:45:52;;;;;;;14.93;7.43;;;25.50;94.00;;;;;;5080100;28;20082;-75
2022/08/14 11:48:23;;;;;;;12.18;6.97;;;25.10;93.80;;;;;;5088531;28;20027;-78
2022/08/14 11:50:53;;;;;;;15.10;7.45;;;25.60;93.30;;;;;;5098057;28;20150;-79
2022/08/14 11:53:31;;;;;;;15.27;7.65;;;25.40;93.70;;;;;;5079894;28;20110;-72
2022/08/14 11:56:03;;;;;;;15.68;7.57;;;25.20;93.90;;;;;;5097911;28;20024;-74
2022/08/14 11:58:37;;;;;;;13.75;7.65;;;25.20;93.80;;;;;;5099099;28;20020;-74
2022/08/14 12:01:08;;;;;;;15.55;8.80;;;25.00;93.50;;;;;;5090643;28;20539;-74
2022/08/14 12:03:35;;;;;;;18.08;8.48;;;24.50;94.30;;;;;;5091544;28;20023;-73
2022/08/14 12:06:10;;;;;;;16.13;7.25;;;24.30;94.00;;;;;;5092455;28;20028;-74
2022/08/14 12:08:36;;;;;;;14.32;7.55;;;20.70;93.80;;;;;;5068181;28;20043;-72
2022/08/14 12:11:04;;;;;;;19.65;9.05;;;23.70;95.20;;;;;;5089994;28;20019;-75
2022/08/14 12:13:31;;;;;;;15.43;7.65;;;23.40;95.80;;;;;;5084829;28;20032;-75
2022/08/14 12:16:15;;;;;;;14.43;8.07;;;24.20;95.60;;;;;;5103087;28;20035;-80
2022/08/14 12:18:43;;;;;;;15.73;8.63;;;24.20;95.40;;;;;;5102877;28;20095;-76
2022/08/14 12:21:13;;;;;;;15.57;7.88;;;24.70;95.80;;;;;;5101702;28;20521;-76
2022/08/14 12:23:39;;;;;;;15.25;7.75;;;25.50;94.40;;;;;;5083627;28;20076;-76
2022/08/14 12:26:09;;;;;;;14.82;8.30;;;25.90;92.90;;;;;;5100717;28;20023;-86
2022/08/14 12:28:37;;;;;;;15.18;7.72;;;26.10;92.50;;;;;;5072610;28;20123;-74
2022/08/14 12:31:19;;;;;;;20.35;9.15;;;26.40;92.30;;;;;;5073509;28;20080;-74
2022/08/14 12:34:00;;;;;;;14.57;8.15;;;26.50;91.50;;;;;;5101187;28;20027;-73
2022/08/14 12:36:29;;;;;;;12.57;6.90;;;26.30;91.90;;;;;;5080321;28;20086;-75
2022/08/14 12:38:56;;;;;;;16.70;8.77;;;26.10;91.30;;;;;;5077953;28;20632;-75
2022/08/14 12:41:25;;;;;;;17.38;8.27;;;26.50;91.80;;;;;;5081220;28;20022;-75
2022/08/14 12:43:55;;;;;;;14.38;7.63;;;25.50;91.30;;;;;;5074324;28;20080;-75
2022/08/14 12:46:22;;;;;;;14.57;7.72;;;25.60;92.10;;;;;;5082843;28;20024;-74
2022/08/14 12:48:48;;;;;;;15.25;7.65;;;25.80;91.90;;;;;;5100118;28;20016;-74
2022/08/14 12:51:17;;;;;;;14.52;7.72;;;26.10;92.00;;;;;;5069901;28;20662;-74
2022/08/14 12:53:42;;;;;;;14.48;8.32;;;26.80;90.90;;;;;;5077555;28;20770;-73
2022/08/14 12:56:10;;;;;;;12.80;7.10;;;27.60;90.50;;;;;;5070371;28;20104;-76
2022/08/14 12:58:36;;;;;;;14.38;7.47;;;25.50;87.00;;;;;;5080780;28;20027;-76
2022/08/14 13:01:02;;;;;;;13.35;7.78;;;27.20;84.80;;;;;;5062311;28;20077;-74
2022/08/14 13:03:29;;;;;;;14.05;8.52;;;28.50;85.30;;;;;;5091950;28;20016;-74
2022/08/14 13:05:55;;;;;;;14.10;7.93;;;;;;;;;;5100470;28;20023;-74